sensor_id;sensor_type;location;lat;lon;timestamp;P1;durP1;ratioP1;P2;durP2;ratioP2
8889;SDS011;4481;43.406;24.454;2022-12-05T00:01:28;27.00;;;19.03;;
8889;SDS011;4481;43.406;24.454;2022-12-05T00:03:56;45.47;;;20.00;;
8889;SDS011;4481;43.406;24.454;2022-12-05T00:06:24;33.60;;;18.53;;
8889;SDS011;4481;43.406;24.454;2022-12-05T00:08:51;32.73;;;17.40;;
8889;SDS011;4481;43.406;24.454;2022-12-05T00:11:19;32.63;;;16.93;;
8889;SDS011;4481;43.406;24.454;2022-12-05T00:13:48;39.20;;;16.43;;
8889;SDS011;4481;43.406;24.454;2022-12-05T00:16:15;36.80;;;16.47;;
8889;SDS011;4481;43.406;24.454;2022-12-05T00:18:44;39.27;;;17.13;;
8889;SDS011;4481;43.406;24.454;2022-12-05T00:21:11;41.43;;;15.17;;
8889;SDS011;4481;43.406;24.454;2022-12-05T00:23:39;43.90;;;16.67;;
8889;SDS011;4481;43.406;24.454;2022-12-05T00:26:05;55.67;;;17.30;;
8889;SDS011;4481;43.406;24.454;2022-12-05T00:28:32;57.37;;;19.47;;
8889;SDS011;4481;43.406;24.454;2022-12-05T00:31:01;42.87;;;18.30;;
8889;SDS011;4481;43.406;24.454;2022-12-05T00:33:27;62.73;;;19.40;;
8889;SDS011;4481;43.406;24.454;2022-12-05T00:35:54;69.50;;;19.73;;
8889;SDS011;4481;43.406;24.454;2022-12-05T00:38:20;46.47;;;19.37;;
8889;SDS011;4481;43.406;24.454;2022-12-05T00:40:46;33.60;;;18.83;;
8889;SDS011;4481;43.406;24.454;2022-12-05T00:43:13;52.37;;;19.07;;
8889;SDS011;4481;43.406;24.454;2022-12-05T00:45:39;51.33;;;19.07;;
8889;SDS011;4481;43.406;24.454;2022-12-05T00:48:05;37.37;;;19.63;;
8889;SDS011;4481;43.406;24.454;2022-12-05T00:50:31;54.03;;;19.93;;
8889;SDS011;4481;43.406;24.454;2022-12-05T00:52:58;39.73;;;18.40;;
8889;SDS011;4481;43.406;24.454;2022-12-05T00:55:24;49.47;;;19.03;;
8889;SDS011;4481;43.406;24.454;2022-12-05T00:57:50;42.00;;;19.07;;
8889;SDS011;4481;43.406;24.454;2022-12-05T01:00:17;38.07;;;18.33;;
8889;SDS011;4481;43.406;24.454;2022-12-05T01:02:43;44.20;;;18.50;;
8889;SDS011;4481;43.406;24.454;2022-12-05T01:05:10;34.87;;;18.87;;
8889;SDS011;4481;43.406;24.454;2022-12-05T01:07:36;45.03;;;18.63;;
8889;SDS011;4481;43.406;24.454;2022-12-05T01:10:03;41.17;;;18.40;;
8889;SDS011;4481;43.406;24.454;2022-12-05T01:12:30;38.20;;;16.87;;
8889;SDS011;4481;43.406;24.454;2022-12-05T01:14:56;44.23;;;17.60;;
8889;SDS011;4481;43.406;24.454;2022-12-05T01:17:22;38.67;;;18.37;;
8889;SDS011;4481;43.406;24.454;2022-12-05T01:19:49;31.17;;;17.33;;
8889;SDS011;4481;43.406;24.454;2022-12-05T01:22:15;31.03;;;16.47;;
8889;SDS011;4481;43.406;24.454;2022-12-05T01:24:41;28.53;;;15.87;;
8889;SDS011;4481;43.406;24.454;2022-12-05T01:27:08;25.67;;;14.63;;
8889;SDS011;4481;43.406;24.454;2022-12-05T01:29:34;35.13;;;15.13;;
8889;SDS011;4481;43.406;24.454;2022-12-05T01:32:01;23.20;;;15.10;;
8889;SDS011;4481;43.406;24.454;2022-12-05T01:34:27;24.13;;;14.83;;
8889;SDS011;4481;43.406;24.454;2022-12-05T01:36:53;27.90;;;14.03;;
8889;SDS011;4481;43.406;24.454;2022-12-05T01:39:20;29.70;;;14.67;;
8889;SDS011;4481;43.406;24.454;2022-12-05T01:41:48;29.10;;;14.10;;
8889;SDS011;4481;43.406;24.454;2022-12-05T01:47:17;23.80;;;14.40;;
8889;SDS011;4481;43.406;24.454;2022-12-05T01:49:44;32.33;;;13.83;;
8889;SDS011;4481;43.406;24.454;2022-12-05T01:52:10;17.93;;;13.17;;
8889;SDS011;4481;43.406;24.454;2022-12-05T01:54:40;28.10;;;14.10;;
8889;SDS011;4481;43.406;24.454;2022-12-05T01:57:09;24.83;;;14.10;;
8889;SDS011;4481;43.406;24.454;2022-12-05T01:59:38;22.50;;;13.50;;
8889;SDS011;4481;43.406;24.454;2022-12-05T02:02:09;24.87;;;12.87;;
8889;SDS011;4481;43.406;24.454;2022-12-05T02:04:37;34.93;;;13.80;;
8889;SDS011;4481;43.406;24.454;2022-12-05T02:07:10;23.33;;;13.17;;
8889;SDS011;4481;43.406;24.454;2022-12-05T02:09:36;19.13;;;12.20;;
8889;SDS011;4481;43.406;24.454;2022-12-05T02:12:03;29.40;;;13.07;;
8889;SDS011;4481;43.406;24.454;2022-12-05T02:14:31;30.73;;;13.77;;
8889;SDS011;4481;43.406;24.454;2022-12-05T02:17:05;35.10;;;12.87;;
8889;SDS011;4481;43.406;24.454;2022-12-05T02:19:49;37.87;;;14.17;;
8889;SDS011;4481;43.406;24.454;2022-12-05T02:22:36;24.77;;;12.80;;
8889;SDS011;4481;43.406;24.454;2022-12-05T02:31:17;23.90;;;13.23;;
8889;SDS011;4481;43.406;24.454;2022-12-05T02:33:54;45.57;;;14.83;;
8889;SDS011;4481;43.406;24.454;2022-12-05T02:36:28;31.03;;;14.13;;
8889;SDS011;4481;43.406;24.454;2022-12-05T02:39:04;43.90;;;14.83;;
8889;SDS011;4481;43.406;24.454;2022-12-05T02:41:39;30.87;;;14.97;;
8889;SDS011;4481;43.406;24.454;2022-12-05T02:44:12;36.30;;;14.27;;
8889;SDS011;4481;43.406;24.454;2022-12-05T02:46:43;41.80;;;14.30;;
8889;SDS011;4481;43.406;24.454;2022-12-05T02:49:14;34.70;;;14.27;;
8889;SDS011;4481;43.406;24.454;2022-12-05T02:51:46;39.00;;;13.97;;
8889;SDS011;4481;43.406;24.454;2022-12-05T02:54:17;34.13;;;13.67;;
8889;SDS011;4481;43.406;24.454;2022-12-05T02:56:48;30.17;;;13.97;;
8889;SDS011;4481;43.406;24.454;2022-12-05T02:59:16;26.07;;;15.03;;
8889;SDS011;4481;43.406;24.454;2022-12-05T03:01:43;34.33;;;14.40;;
8889;SDS011;4481;43.406;24.454;2022-12-05T03:04:11;30.03;;;14.57;;
8889;SDS011;4481;43.406;24.454;2022-12-05T03:06:38;30.90;;;14.17;;
8889;SDS011;4481;43.406;24.454;2022-12-05T03:09:08;36.00;;;14.97;;
8889;SDS011;4481;43.406;24.454;2022-12-05T03:11:39;24.10;;;14.17;;
8889;SDS011;4481;43.406;24.454;2022-12-05T03:14:10;33.67;;;13.87;;
8889;SDS011;4481;43.406;24.454;2022-12-05T03:16:40;29.20;;;14.43;;
8889;SDS011;4481;43.406;24.454;2022-12-05T03:19:11;23.67;;;13.30;;
8889;SDS011;4481;43.406;24.454;2022-12-05T03:21:44;28.70;;;15.27;;
8889;SDS011;4481;43.406;24.454;2022-12-05T03:24:14;30.57;;;14.93;;
8889;SDS011;4481;43.406;24.454;2022-12-05T03:26:43;30.33;;;14.37;;
8889;SDS011;4481;43.406;24.454;2022-12-05T03:29:24;26.03;;;15.00;;
8889;SDS011;4481;43.406;24.454;2022-12-05T03:31:57;27.23;;;16.40;;
8889;SDS011;4481;43.406;24.454;2022-12-05T03:34:36;26.50;;;15.43;;
8889;SDS011;4481;43.406;24.454;2022-12-05T03:37:18;34.27;;;16.53;;
8889;SDS011;4481;43.406;24.454;2022-12-05T03:40:00;31.17;;;16.27;;
8889;SDS011;4481;43.406;24.454;2022-12-05T03:42:32;35.03;;;17.17;;
8889;SDS011;4481;43.406;24.454;2022-12-05T03:45:02;25.87;;;16.23;;
8889;SDS011;4481;43.406;24.454;2022-12-05T03:47:34;28.30;;;15.90;;
8889;SDS011;4481;43.406;24.454;2022-12-05T03:50:10;31.03;;;16.30;;
8889;SDS011;4481;43.406;24.454;2022-12-05T03:52:44;43.73;;;15.63;;
8889;SDS011;4481;43.406;24.454;2022-12-05T03:55:12;32.97;;;15.50;;
8889;SDS011;4481;43.406;24.454;2022-12-05T03:57:40;29.07;;;16.30;;
8889;SDS011;4481;43.406;24.454;2022-12-05T04:00:13;33.70;;;16.60;;
8889;SDS011;4481;43.406;24.454;2022-12-05T04:02:44;33.03;;;16.77;;
8889;SDS011;4481;43.406;24.454;2022-12-05T04:05:16;38.93;;;16.57;;
8889;SDS011;4481;43.406;24.454;2022-12-05T04:07:45;28.90;;;17.57;;
8889;SDS011;4481;43.406;24.454;2022-12-05T04:10:14;28.53;;;16.60;;
8889;SDS011;4481;43.406;24.454;2022-12-05T04:12:44;35.53;;;17.73;;
8889;SDS011;4481;43.406;24.454;2022-12-05T04:15:13;25.83;;;17.10;;
8889;SDS011;4481;43.406;24.454;2022-12-05T04:17:44;37.70;;;17.80;;
8889;SDS011;4481;43.406;24.454;2022-12-05T04:20:15;27.07;;;15.87;;
8889;SDS011;4481;43.406;24.454;2022-12-05T04:22:59;25.63;;;16.33;;
8889;SDS011;4481;43.406;24.454;2022-12-05T04:25:26;23.50;;;15.53;;
8889;SDS011;4481;43.406;24.454;2022-12-05T04:28:04;33.03;;;16.67;;
8889;SDS011;4481;43.406;24.454;2022-12-05T04:30:45;29.67;;;16.13;;
8889;SDS011;4481;43.406;24.454;2022-12-05T04:33:16;30.50;;;16.70;;
8889;SDS011;4481;43.406;24.454;2022-12-05T04:35:51;27.47;;;16.60;;
8889;SDS011;4481;43.406;24.454;2022-12-05T04:38:22;27.70;;;17.43;;
8889;SDS011;4481;43.406;24.454;2022-12-05T04:40:53;43.07;;;22.47;;
8889;SDS011;4481;43.406;24.454;2022-12-05T04:43:22;42.43;;;22.07;;
8889;SDS011;4481;43.406;24.454;2022-12-05T04:45:50;32.33;;;18.73;;
8889;SDS011;4481;43.406;24.454;2022-12-05T04:48:19;23.83;;;16.70;;
8889;SDS011;4481;43.406;24.454;2022-12-05T04:50:47;35.80;;;19.23;;
8889;SDS011;4481;43.406;24.454;2022-12-05T04:53:16;27.63;;;18.03;;
8889;SDS011;4481;43.406;24.454;2022-12-05T04:55:45;30.47;;;18.73;;
8889;SDS011;4481;43.406;24.454;2022-12-05T04:58:16;28.97;;;18.67;;
8889;SDS011;4481;43.406;24.454;2022-12-05T05:00:46;28.83;;;18.10;;
8889;SDS011;4481;43.406;24.454;2022-12-05T05:03:21;25.10;;;15.77;;
8889;SDS011;4481;43.406;24.454;2022-12-05T05:05:53;16.57;;;11.83;;
8889;SDS011;4481;43.406;24.454;2022-12-05T05:08:22;18.00;;;10.90;;
8889;SDS011;4481;43.406;24.454;2022-12-05T05:10:51;12.17;;;9.53;;
8889;SDS011;4481;43.406;24.454;2022-12-05T05:13:25;10.17;;;9.13;;
8889;SDS011;4481;43.406;24.454;2022-12-05T05:15:52;11.77;;;9.60;;
8889;SDS011;4481;43.406;24.454;2022-12-05T05:18:18;10.57;;;9.03;;
8889;SDS011;4481;43.406;24.454;2022-12-05T05:20:44;11.70;;;8.97;;
8889;SDS011;4481;43.406;24.454;2022-12-05T05:23:11;12.17;;;8.90;;
8889;SDS011;4481;43.406;24.454;2022-12-05T05:25:38;13.23;;;9.53;;
8889;SDS011;4481;43.406;24.454;2022-12-05T05:28:04;12.47;;;9.27;;
8889;SDS011;4481;43.406;24.454;2022-12-05T05:30:30;11.20;;;9.33;;
8889;SDS011;4481;43.406;24.454;2022-12-05T05:32:57;13.10;;;9.63;;
8889;SDS011;4481;43.406;24.454;2022-12-05T05:35:24;11.77;;;9.33;;
8889;SDS011;4481;43.406;24.454;2022-12-05T05:37:50;16.33;;;9.93;;
8889;SDS011;4481;43.406;24.454;2022-12-05T05:40:18;12.60;;;10.23;;
8889;SDS011;4481;43.406;24.454;2022-12-05T05:42:45;15.10;;;10.13;;
8889;SDS011;4481;43.406;24.454;2022-12-05T05:45:12;14.43;;;9.93;;
8889;SDS011;4481;43.406;24.454;2022-12-05T05:47:40;17.17;;;10.33;;
8889;SDS011;4481;43.406;24.454;2022-12-05T05:50:07;13.10;;;10.80;;
8889;SDS011;4481;43.406;24.454;2022-12-05T05:52:34;14.77;;;10.83;;
8889;SDS011;4481;43.406;24.454;2022-12-05T05:55:01;14.33;;;11.57;;
8889;SDS011;4481;43.406;24.454;2022-12-05T05:57:29;23.73;;;10.77;;
8889;SDS011;4481;43.406;24.454;2022-12-05T05:59:56;13.60;;;11.23;;
8889;SDS011;4481;43.406;24.454;2022-12-05T06:02:22;14.57;;;11.30;;
8889;SDS011;4481;43.406;24.454;2022-12-05T06:04:48;13.67;;;11.20;;
8889;SDS011;4481;43.406;24.454;2022-12-05T06:07:15;17.70;;;12.20;;
8889;SDS011;4481;43.406;24.454;2022-12-05T06:09:42;17.33;;;12.53;;
8889;SDS011;4481;43.406;24.454;2022-12-05T06:12:08;15.57;;;11.67;;
8889;SDS011;4481;43.406;24.454;2022-12-05T06:14:36;19.97;;;12.93;;
8889;SDS011;4481;43.406;24.454;2022-12-05T06:17:02;14.67;;;12.00;;
8889;SDS011;4481;43.406;24.454;2022-12-05T06:19:29;15.73;;;13.27;;
8889;SDS011;4481;43.406;24.454;2022-12-05T06:21:55;21.17;;;12.83;;
8889;SDS011;4481;43.406;24.454;2022-12-05T06:24:21;15.03;;;10.90;;
8889;SDS011;4481;43.406;24.454;2022-12-05T06:26:48;16.10;;;10.90;;
8889;SDS011;4481;43.406;24.454;2022-12-05T06:29:14;17.17;;;11.33;;
8889;SDS011;4481;43.406;24.454;2022-12-05T06:31:41;18.20;;;12.60;;
8889;SDS011;4481;43.406;24.454;2022-12-05T06:34:07;15.33;;;12.23;;
8889;SDS011;4481;43.406;24.454;2022-12-05T06:36:33;14.80;;;11.90;;
8889;SDS011;4481;43.406;24.454;2022-12-05T06:39:00;18.67;;;11.40;;
8889;SDS011;4481;43.406;24.454;2022-12-05T06:41:27;14.00;;;10.93;;
8889;SDS011;4481;43.406;24.454;2022-12-05T06:43:54;22.97;;;12.23;;
8889;SDS011;4481;43.406;24.454;2022-12-05T06:46:21;14.97;;;11.47;;
8889;SDS011;4481;43.406;24.454;2022-12-05T06:48:51;13.10;;;11.73;;
8889;SDS011;4481;43.406;24.454;2022-12-05T06:51:18;21.53;;;12.73;;
8889;SDS011;4481;43.406;24.454;2022-12-05T06:53:44;15.47;;;12.37;;
8889;SDS011;4481;43.406;24.454;2022-12-05T06:56:11;17.87;;;12.60;;
8889;SDS011;4481;43.406;24.454;2022-12-05T06:58:40;15.87;;;11.90;;
8889;SDS011;4481;43.406;24.454;2022-12-05T07:01:09;16.50;;;11.70;;
8889;SDS011;4481;43.406;24.454;2022-12-05T07:03:55;29.20;;;13.40;;
8889;SDS011;4481;43.406;24.454;2022-12-05T07:06:21;19.60;;;13.03;;
8889;SDS011;4481;43.406;24.454;2022-12-05T07:08:48;16.07;;;13.20;;
8889;SDS011;4481;43.406;24.454;2022-12-05T07:11:14;17.63;;;11.97;;
8889;SDS011;4481;43.406;24.454;2022-12-05T07:13:42;17.47;;;11.37;;
8889;SDS011;4481;43.406;24.454;2022-12-05T07:16:09;25.23;;;11.83;;
8889;SDS011;4481;43.406;24.454;2022-12-05T07:18:35;25.80;;;12.80;;
8889;SDS011;4481;43.406;24.454;2022-12-05T07:21:03;23.87;;;14.47;;
8889;SDS011;4481;43.406;24.454;2022-12-05T07:23:32;28.33;;;14.37;;
8889;SDS011;4481;43.406;24.454;2022-12-05T07:25:58;21.10;;;14.57;;
8889;SDS011;4481;43.406;24.454;2022-12-05T07:28:28;14.60;;;12.27;;
8889;SDS011;4481;43.406;24.454;2022-12-05T07:30:58;20.90;;;11.23;;
8889;SDS011;4481;43.406;24.454;2022-12-05T07:33:26;23.20;;;13.80;;
8889;SDS011;4481;43.406;24.454;2022-12-05T07:35:52;27.43;;;14.60;;
8889;SDS011;4481;43.406;24.454;2022-12-05T07:38:23;35.50;;;12.70;;
8889;SDS011;4481;43.406;24.454;2022-12-05T07:40:49;34.37;;;14.20;;
8889;SDS011;4481;43.406;24.454;2022-12-05T07:43:16;37.53;;;19.17;;
8889;SDS011;4481;43.406;24.454;2022-12-05T07:45:42;33.33;;;14.40;;
8889;SDS011;4481;43.406;24.454;2022-12-05T07:48:08;24.97;;;17.27;;
8889;SDS011;4481;43.406;24.454;2022-12-05T07:50:35;32.37;;;17.80;;
8889;SDS011;4481;43.406;24.454;2022-12-05T07:53:02;18.67;;;13.77;;
8889;SDS011;4481;43.406;24.454;2022-12-05T07:55:28;30.23;;;14.53;;
8889;SDS011;4481;43.406;24.454;2022-12-05T07:57:55;17.00;;;13.80;;
8889;SDS011;4481;43.406;24.454;2022-12-05T08:00:23;25.77;;;16.33;;
8889;SDS011;4481;43.406;24.454;2022-12-05T08:02:49;39.20;;;17.80;;
8889;SDS011;4481;43.406;24.454;2022-12-05T08:05:15;36.73;;;17.00;;
8889;SDS011;4481;43.406;24.454;2022-12-05T08:07:41;31.43;;;16.37;;
8889;SDS011;4481;43.406;24.454;2022-12-05T08:10:08;29.63;;;17.50;;
8889;SDS011;4481;43.406;24.454;2022-12-05T08:12:35;39.17;;;18.57;;
8889;SDS011;4481;43.406;24.454;2022-12-05T08:15:02;40.07;;;18.53;;
8889;SDS011;4481;43.406;24.454;2022-12-05T08:17:29;39.73;;;16.77;;
8889;SDS011;4481;43.406;24.454;2022-12-05T08:19:56;35.33;;;16.93;;
8889;SDS011;4481;43.406;24.454;2022-12-05T08:22:22;33.33;;;19.60;;
8889;SDS011;4481;43.406;24.454;2022-12-05T08:24:48;54.83;;;18.00;;
8889;SDS011;4481;43.406;24.454;2022-12-05T08:27:15;29.77;;;18.87;;
8889;SDS011;4481;43.406;24.454;2022-12-05T08:29:42;30.90;;;17.70;;
8889;SDS011;4481;43.406;24.454;2022-12-05T08:32:09;37.70;;;19.53;;
8889;SDS011;4481;43.406;24.454;2022-12-05T08:34:36;41.83;;;16.77;;
8889;SDS011;4481;43.406;24.454;2022-12-05T08:37:03;40.27;;;20.00;;
8889;SDS011;4481;43.406;24.454;2022-12-05T08:39:29;28.60;;;17.63;;
8889;SDS011;4481;43.406;24.454;2022-12-05T08:41:56;26.43;;;17.73;;
8889;SDS011;4481;43.406;24.454;2022-12-05T08:44:22;26.17;;;16.23;;
8889;SDS011;4481;43.406;24.454;2022-12-05T08:46:50;28.00;;;17.87;;
8889;SDS011;4481;43.406;24.454;2022-12-05T08:49:16;36.90;;;18.47;;
8889;SDS011;4481;43.406;24.454;2022-12-05T08:51:43;32.87;;;17.70;;
8889;SDS011;4481;43.406;24.454;2022-12-05T08:54:10;38.60;;;17.60;;
8889;SDS011;4481;43.406;24.454;2022-12-05T08:56:36;27.77;;;15.10;;
8889;SDS011;4481;43.406;24.454;2022-12-05T08:59:03;30.27;;;15.63;;
8889;SDS011;4481;43.406;24.454;2022-12-05T09:01:30;25.53;;;16.83;;
8889;SDS011;4481;43.406;24.454;2022-12-05T09:03:59;24.47;;;16.67;;
8889;SDS011;4481;43.406;24.454;2022-12-05T09:06:29;22.60;;;15.80;;
8889;SDS011;4481;43.406;24.454;2022-12-05T09:08:57;22.47;;;15.50;;
8889;SDS011;4481;43.406;24.454;2022-12-05T09:11:27;23.47;;;15.17;;
8889;SDS011;4481;43.406;24.454;2022-12-05T09:13:56;34.20;;;16.93;;
8889;SDS011;4481;43.406;24.454;2022-12-05T09:16:24;25.97;;;17.63;;
8889;SDS011;4481;43.406;24.454;2022-12-05T09:18:53;22.60;;;15.87;;
8889;SDS011;4481;43.406;24.454;2022-12-05T09:21:21;23.63;;;15.63;;
8889;SDS011;4481;43.406;24.454;2022-12-05T09:23:48;16.93;;;13.10;;
8889;SDS011;4481;43.406;24.454;2022-12-05T09:26:16;17.47;;;12.50;;
8889;SDS011;4481;43.406;24.454;2022-12-05T09:28:43;16.23;;;13.63;;
8889;SDS011;4481;43.406;24.454;2022-12-05T09:31:10;17.47;;;13.13;;
8889;SDS011;4481;43.406;24.454;2022-12-05T09:33:38;18.73;;;13.13;;
8889;SDS011;4481;43.406;24.454;2022-12-05T09:36:06;19.23;;;12.47;;
8889;SDS011;4481;43.406;24.454;2022-12-05T09:38:41;15.13;;;11.10;;
8889;SDS011;4481;43.406;24.454;2022-12-05T09:41:10;14.83;;;12.97;;
8889;SDS011;4481;43.406;24.454;2022-12-05T09:44:06;18.00;;;12.40;;
8889;SDS011;4481;43.406;24.454;2022-12-05T09:46:41;16.87;;;11.70;;
8889;SDS011;4481;43.406;24.454;2022-12-05T09:49:14;15.17;;;12.27;;
8889;SDS011;4481;43.406;24.454;2022-12-05T09:51:41;14.23;;;11.33;;
8889;SDS011;4481;43.406;24.454;2022-12-05T09:54:11;13.90;;;10.33;;
8889;SDS011;4481;43.406;24.454;2022-12-05T09:56:39;14.60;;;9.47;;
8889;SDS011;4481;43.406;24.454;2022-12-05T09:59:09;14.30;;;10.00;;
8889;SDS011;4481;43.406;24.454;2022-12-05T10:01:40;14.53;;;10.60;;
8889;SDS011;4481;43.406;24.454;2022-12-05T10:04:13;13.17;;;9.60;;
8889;SDS011;4481;43.406;24.454;2022-12-05T10:06:48;15.50;;;11.33;;
8889;SDS011;4481;43.406;24.454;2022-12-05T10:09:31;11.77;;;10.20;;
8889;SDS011;4481;43.406;24.454;2022-12-05T10:12:10;17.67;;;13.13;;
8889;SDS011;4481;43.406;24.454;2022-12-05T10:14:46;23.53;;;13.87;;
8889;SDS011;4481;43.406;24.454;2022-12-05T10:17:21;14.57;;;10.53;;
8889;SDS011;4481;43.406;24.454;2022-12-05T10:19:54;13.83;;;10.57;;
8889;SDS011;4481;43.406;24.454;2022-12-05T10:22:24;16.67;;;10.23;;
8889;SDS011;4481;43.406;24.454;2022-12-05T10:24:54;13.97;;;11.07;;
8889;SDS011;4481;43.406;24.454;2022-12-05T10:27:26;16.07;;;12.00;;
8889;SDS011;4481;43.406;24.454;2022-12-05T10:29:57;20.53;;;11.83;;
8889;SDS011;4481;43.406;24.454;2022-12-05T10:32:27;15.07;;;11.03;;
8889;SDS011;4481;43.406;24.454;2022-12-05T10:34:59;14.10;;;11.70;;
8889;SDS011;4481;43.406;24.454;2022-12-05T10:37:38;18.33;;;11.50;;
8889;SDS011;4481;43.406;24.454;2022-12-05T10:40:11;18.50;;;12.93;;
8889;SDS011;4481;43.406;24.454;2022-12-05T10:42:38;20.97;;;12.37;;
8889;SDS011;4481;43.406;24.454;2022-12-05T10:45:05;17.53;;;12.43;;
8889;SDS011;4481;43.406;24.454;2022-12-05T10:47:38;18.67;;;14.30;;
8889;SDS011;4481;43.406;24.454;2022-12-05T10:50:06;16.63;;;12.50;;
8889;SDS011;4481;43.406;24.454;2022-12-05T10:52:47;16.77;;;12.10;;
8889;SDS011;4481;43.406;24.454;2022-12-05T10:55:15;13.87;;;10.97;;
8889;SDS011;4481;43.406;24.454;2022-12-05T10:57:44;16.43;;;11.87;;
8889;SDS011;4481;43.406;24.454;2022-12-05T11:00:16;17.07;;;11.53;;
8889;SDS011;4481;43.406;24.454;2022-12-05T11:02:46;16.23;;;12.30;;
8889;SDS011;4481;43.406;24.454;2022-12-05T11:05:13;16.23;;;12.17;;
8889;SDS011;4481;43.406;24.454;2022-12-05T11:07:44;14.10;;;10.87;;
8889;SDS011;4481;43.406;24.454;2022-12-05T11:10:18;16.50;;;11.60;;
8889;SDS011;4481;43.406;24.454;2022-12-05T11:12:46;14.63;;;11.40;;
8889;SDS011;4481;43.406;24.454;2022-12-05T11:15:18;17.60;;;11.13;;
8889;SDS011;4481;43.406;24.454;2022-12-05T11:17:49;13.17;;;11.47;;
8889;SDS011;4481;43.406;24.454;2022-12-05T11:25:52;17.33;;;12.23;;
8889;SDS011;4481;43.406;24.454;2022-12-05T11:28:23;21.43;;;12.73;;
8889;SDS011;4481;43.406;24.454;2022-12-05T11:30:55;15.23;;;11.07;;
8889;SDS011;4481;43.406;24.454;2022-12-05T11:33:24;14.83;;;10.50;;
8889;SDS011;4481;43.406;24.454;2022-12-05T11:35:53;11.70;;;9.27;;
8889;SDS011;4481;43.406;24.454;2022-12-05T11:38:25;11.27;;;9.27;;
8889;SDS011;4481;43.406;24.454;2022-12-05T11:40:54;9.77;;;8.77;;
8889;SDS011;4481;43.406;24.454;2022-12-05T11:43:37;13.20;;;10.17;;
8889;SDS011;4481;43.406;24.454;2022-12-05T11:46:19;11.00;;;8.13;;
8889;SDS011;4481;43.406;24.454;2022-12-05T11:48:57;13.17;;;9.23;;
8889;SDS011;4481;43.406;24.454;2022-12-05T11:51:33;11.47;;;8.30;;
8889;SDS011;4481;43.406;24.454;2022-12-05T11:57:14;15.30;;;10.30;;
8889;SDS011;4481;43.406;24.454;2022-12-05T11:59:58;12.47;;;10.20;;
8889;SDS011;4481;43.406;24.454;2022-12-05T12:02:50;11.50;;;9.43;;
8889;SDS011;4481;43.406;24.454;2022-12-05T12:05:36;26.93;;;17.97;;
8889;SDS011;4481;43.406;24.454;2022-12-05T12:08:09;21.13;;;14.80;;
8889;SDS011;4481;43.406;24.454;2022-12-05T12:10:46;16.93;;;13.40;;
8889;SDS011;4481;43.406;24.454;2022-12-05T12:13:23;17.17;;;12.03;;
8889;SDS011;4481;43.406;24.454;2022-12-05T12:16:01;16.77;;;12.33;;
8889;SDS011;4481;43.406;24.454;2022-12-05T12:18:45;16.50;;;12.10;;
8889;SDS011;4481;43.406;24.454;2022-12-05T12:21:40;14.47;;;10.87;;
8889;SDS011;4481;43.406;24.454;2022-12-05T12:24:22;14.53;;;10.20;;
8889;SDS011;4481;43.406;24.454;2022-12-05T12:26:59;12.17;;;9.87;;
8889;SDS011;4481;43.406;24.454;2022-12-05T12:29:37;18.47;;;12.03;;
8889;SDS011;4481;43.406;24.454;2022-12-05T12:32:17;12.77;;;11.20;;
8889;SDS011;4481;43.406;24.454;2022-12-05T12:34:57;12.77;;;9.83;;
8889;SDS011;4481;43.406;24.454;2022-12-05T12:37:42;12.27;;;9.90;;
8889;SDS011;4481;43.406;24.454;2022-12-05T12:40:19;10.83;;;8.87;;
8889;SDS011;4481;43.406;24.454;2022-12-05T12:42:50;16.17;;;10.13;;
8889;SDS011;4481;43.406;24.454;2022-12-05T12:45:29;12.13;;;9.20;;
8889;SDS011;4481;43.406;24.454;2022-12-05T12:48:13;12.03;;;9.70;;
8889;SDS011;4481;43.406;24.454;2022-12-05T12:51:00;12.03;;;9.33;;
8889;SDS011;4481;43.406;24.454;2022-12-05T12:53:35;10.40;;;8.70;;
8889;SDS011;4481;43.406;24.454;2022-12-05T12:56:23;13.30;;;9.40;;
8889;SDS011;4481;43.406;24.454;2022-12-05T12:59:04;11.53;;;8.57;;
8889;SDS011;4481;43.406;24.454;2022-12-05T13:01:44;10.83;;;8.77;;
8889;SDS011;4481;43.406;24.454;2022-12-05T13:04:18;12.10;;;8.87;;
8889;SDS011;4481;43.406;24.454;2022-12-05T13:06:50;13.50;;;10.00;;
8889;SDS011;4481;43.406;24.454;2022-12-05T13:09:20;30.57;;;18.73;;
8889;SDS011;4481;43.406;24.454;2022-12-05T13:11:52;30.27;;;20.33;;
8889;SDS011;4481;43.406;24.454;2022-12-05T13:14:20;39.43;;;23.10;;
8889;SDS011;4481;43.406;24.454;2022-12-05T13:16:52;46.43;;;24.00;;
8889;SDS011;4481;43.406;24.454;2022-12-05T13:19:22;20.40;;;13.50;;
8889;SDS011;4481;43.406;24.454;2022-12-05T13:21:53;24.20;;;16.83;;
8889;SDS011;4481;43.406;24.454;2022-12-05T13:24:22;19.77;;;15.33;;
8889;SDS011;4481;43.406;24.454;2022-12-05T13:26:51;20.47;;;14.23;;
8889;SDS011;4481;43.406;24.454;2022-12-05T13:29:19;22.23;;;14.20;;
8889;SDS011;4481;43.406;24.454;2022-12-05T13:31:51;16.83;;;13.50;;
8889;SDS011;4481;43.406;24.454;2022-12-05T13:34:33;14.70;;;12.03;;
8889;SDS011;4481;43.406;24.454;2022-12-05T13:37:10;16.27;;;11.73;;
8889;SDS011;4481;43.406;24.454;2022-12-05T13:40:01;13.67;;;10.30;;
8889;SDS011;4481;43.406;24.454;2022-12-05T13:42:46;12.60;;;10.20;;
8889;SDS011;4481;43.406;24.454;2022-12-05T13:45:14;16.40;;;9.20;;
8889;SDS011;4481;43.406;24.454;2022-12-05T13:47:54;12.37;;;10.90;;
8889;SDS011;4481;43.406;24.454;2022-12-05T13:50:35;16.43;;;11.90;;
8889;SDS011;4481;43.406;24.454;2022-12-05T13:53:18;14.70;;;11.60;;
8889;SDS011;4481;43.406;24.454;2022-12-05T13:55:53;17.10;;;11.23;;
8889;SDS011;4481;43.406;24.454;2022-12-05T14:04:22;15.20;;;10.67;;
8889;SDS011;4481;43.406;24.454;2022-12-05T14:07:05;16.87;;;12.57;;
8889;SDS011;4481;43.406;24.454;2022-12-05T14:09:47;20.90;;;14.00;;
8889;SDS011;4481;43.406;24.454;2022-12-05T14:15:23;16.23;;;11.67;;
8889;SDS011;4481;43.406;24.454;2022-12-05T14:18:00;17.27;;;11.57;;
8889;SDS011;4481;43.406;24.454;2022-12-05T14:20:31;15.20;;;11.40;;
8889;SDS011;4481;43.406;24.454;2022-12-05T14:23:39;18.87;;;11.77;;
8889;SDS011;4481;43.406;24.454;2022-12-05T14:26:22;16.87;;;12.13;;
8889;SDS011;4481;43.406;24.454;2022-12-05T14:29:02;20.47;;;11.47;;
8889;SDS011;4481;43.406;24.454;2022-12-05T14:31:45;16.10;;;12.73;;
8889;SDS011;4481;43.406;24.454;2022-12-05T14:34:20;15.20;;;11.73;;
8889;SDS011;4481;43.406;24.454;2022-12-05T14:36:59;17.57;;;12.87;;
8889;SDS011;4481;43.406;24.454;2022-12-05T14:39:32;20.20;;;12.77;;
8889;SDS011;4481;43.406;24.454;2022-12-05T14:42:03;19.57;;;12.27;;
8889;SDS011;4481;43.406;24.454;2022-12-05T14:44:45;23.30;;;14.90;;
8889;SDS011;4481;43.406;24.454;2022-12-05T14:47:11;25.47;;;17.17;;
8889;SDS011;4481;43.406;24.454;2022-12-05T14:49:52;26.67;;;17.73;;
8889;SDS011;4481;43.406;24.454;2022-12-05T14:52:23;29.77;;;20.50;;
8889;SDS011;4481;43.406;24.454;2022-12-05T14:54:51;21.37;;;17.73;;
8889;SDS011;4481;43.406;24.454;2022-12-05T14:57:20;20.87;;;12.47;;
8889;SDS011;4481;43.406;24.454;2022-12-05T14:59:48;22.03;;;13.77;;
8889;SDS011;4481;43.406;24.454;2022-12-05T15:02:19;29.70;;;19.97;;
8889;SDS011;4481;43.406;24.454;2022-12-05T15:04:50;33.70;;;22.90;;
8889;SDS011;4481;43.406;24.454;2022-12-05T15:07:21;27.00;;;15.83;;
8889;SDS011;4481;43.406;24.454;2022-12-05T15:09:53;22.13;;;16.20;;
8889;SDS011;4481;43.406;24.454;2022-12-05T15:12:22;25.60;;;18.10;;
8889;SDS011;4481;43.406;24.454;2022-12-05T15:14:53;25.67;;;17.77;;
8889;SDS011;4481;43.406;24.454;2022-12-05T15:17:26;18.87;;;13.63;;
8889;SDS011;4481;43.406;24.454;2022-12-05T15:20:02;21.00;;;13.20;;
8889;SDS011;4481;43.406;24.454;2022-12-05T15:22:32;16.27;;;11.70;;
8889;SDS011;4481;43.406;24.454;2022-12-05T15:25:21;18.40;;;11.93;;